createdAt,value
2019-06-01T00:01:48.993Z,101384.91
2019-06-01T00:04:22.399Z,101391.48
2019-06-01T00:06:55.801Z,101390.76
2019-06-01T00:09:29.335Z,101390.47
2019-06-01T00:12:02.737Z,101391.30
2019-06-01T00:14:37.915Z,101380.28
2019-06-01T00:17:11.320Z,101385.73
2019-06-01T00:19:45.053Z,101383.14
2019-06-01T00:22:19.646Z,101383.09
2019-06-01T00:24:53.087Z,101387.05
2019-06-01T00:27:26.470Z,101383.14
2019-06-01T00:29:59.893Z,101382.35
2019-06-01T00:32:33.292Z,101379.06
2019-06-01T00:35:06.795Z,101383.97
2019-06-01T00:37:41.331Z,101383.23
2019-06-01T00:40:14.982Z,101380.91
2019-06-01T00:42:48.366Z,101385.08
2019-06-01T00:45:21.924Z,101384.20
2019-06-01T00:47:55.331Z,101378.41
2019-06-01T00:50:28.762Z,101384.73
2019-06-01T00:53:02.175Z,101380.70
2019-06-01T00:55:35.611Z,101386.06
2019-06-01T00:58:09.032Z,101384.45
2019-06-01T01:00:44.221Z,101384.73
2019-06-01T01:03:17.677Z,101386.99
2019-06-01T01:05:51.114Z,101388.84
2019-06-01T01:08:24.510Z,101385.47
2019-06-01T01:10:57.931Z,101391.44
2019-06-01T01:13:31.332Z,101387.70
2019-06-01T01:16:04.912Z,101390.36
2019-06-01T01:18:38.318Z,101391.72
2019-06-01T01:21:12.177Z,101390.44
2019-06-01T01:23:46.189Z,101387.01
2019-06-01T01:26:19.667Z,101389.79
2019-06-01T01:28:53.079Z,101387.77
2019-06-01T01:31:26.501Z,101389.53
2019-06-01T01:33:59.958Z,101392.78
2019-06-01T01:36:33.461Z,101396.53
2019-06-01T01:39:08.065Z,101392.91
2019-06-01T01:41:41.481Z,101400.84
2019-06-01T01:44:14.979Z,101394.42
2019-06-01T01:46:48.649Z,101395.03
2019-06-01T01:49:22.080Z,101392.00
2019-06-01T01:51:55.517Z,101396.93
2019-06-01T01:54:28.974Z,101391.77
2019-06-01T01:57:02.570Z,101390.98
2019-06-01T01:59:36.012Z,101394.46
2019-06-01T02:02:09.440Z,101393.58
2019-06-01T02:04:42.858Z,101391.41
2019-06-01T02:07:16.282Z,101389.30
2019-06-01T02:09:51.024Z,101389.86
2019-06-01T02:12:24.526Z,101393.59
2019-06-01T02:14:57.930Z,101389.70
2019-06-01T02:17:31.368Z,101391.47
2019-06-01T02:20:07.042Z,101387.38
2019-06-01T02:22:40.467Z,101392.02
2019-06-01T02:25:14.004Z,101390.94
2019-06-01T02:27:47.431Z,101389.17
2019-06-01T02:30:21.014Z,101387.89
2019-06-01T02:32:56.285Z,101389.80
2019-06-01T02:35:29.654Z,101384.96
2019-06-01T02:38:05.515Z,101381.25
2019-06-01T02:40:38.694Z,101386.45
2019-06-01T02:43:12.082Z,101378.02
2019-06-01T02:45:45.510Z,101378.45
2019-06-01T02:48:18.998Z,101375.97
2019-06-01T02:50:52.429Z,101375.61
2019-06-01T02:53:25.896Z,101376.93
2019-06-01T02:55:59.940Z,101374.00
2019-06-01T02:58:33.440Z,101370.00
2019-06-01T03:01:10.056Z,101371.13
2019-06-01T03:03:43.549Z,101367.61
2019-06-01T03:06:18.343Z,101370.69
2019-06-01T03:08:54.487Z,101375.09
2019-06-01T03:11:30.938Z,101367.80
2019-06-01T03:14:06.711Z,101375.36
2019-06-01T03:16:41.734Z,101375.54
2019-06-01T03:19:16.788Z,101376.53
2019-06-01T03:21:51.448Z,101380.52
2019-06-01T03:24:25.306Z,101379.23
2019-06-01T03:26:59.958Z,101380.16
2019-06-01T03:29:36.572Z,101384.31
2019-06-01T03:32:29.446Z,101375.02
2019-06-01T03:34:45.187Z,101378.09
2019-06-01T03:37:18.663Z,101382.86
2019-06-01T03:39:52.166Z,101378.83
2019-06-01T03:42:25.642Z,101378.77
2019-06-01T03:44:59.069Z,101378.44
2019-06-01T03:47:32.474Z,101369.09
2019-06-01T03:50:07.115Z,101375.61
2019-06-01T03:52:40.520Z,101376.01
2019-06-01T03:55:13.932Z,101374.66
2019-06-01T03:57:47.327Z,101391.98
2019-06-01T04:00:20.749Z,101390.38
2019-06-01T04:02:54.180Z,101392.38
2019-06-01T04:05:27.675Z,101386.89
2019-06-01T04:08:01.381Z,101388.84
2019-06-01T04:10:34.795Z,101388.20
2019-06-01T04:13:09.627Z,101384.66
2019-06-01T04:15:43.163Z,101391.48
2019-06-01T04:18:16.555Z,101388.77
2019-06-01T04:20:49.962Z,101384.50
2019-06-01T04:23:23.367Z,101393.75
2019-06-01T04:25:56.773Z,101390.14
2019-06-01T04:28:30.179Z,101387.94
2019-06-01T04:31:04.552Z,101385.64
2019-06-01T04:33:38.087Z,101381.30
2019-06-01T04:36:11.509Z,101382.63
2019-06-01T04:38:44.889Z,101376.05
2019-06-01T04:41:18.407Z,101374.84
2019-06-01T04:43:51.827Z,101370.13
2019-06-01T04:46:25.286Z,101373.93
2019-06-01T04:48:58.740Z,101367.60
2019-06-01T04:51:32.154Z,101375.29
2019-06-01T04:54:06.750Z,101367.98
2019-06-01T04:56:40.389Z,101363.13
2019-06-01T04:59:15.157Z,101368.66
2019-06-01T05:01:48.805Z,101370.64
2019-06-01T05:04:22.196Z,101369.67
2019-06-01T05:06:55.631Z,101374.53
2019-06-01T05:09:29.028Z,101377.85
2019-06-01T05:12:02.462Z,101374.45
2019-06-01T05:14:35.866Z,101376.63
2019-06-01T05:17:10.158Z,101368.87
2019-06-01T05:19:43.655Z,101376.02
2019-06-01T05:22:17.109Z,101383.14
2019-06-01T05:24:50.523Z,101385.77
2019-06-01T05:27:23.921Z,101385.23
2019-06-01T05:29:57.414Z,101388.35
2019-06-01T05:32:30.885Z,101387.28
2019-06-01T05:35:05.754Z,101388.61
2019-06-01T05:37:39.186Z,101378.84
2019-06-01T05:40:12.755Z,101390.99
2019-06-01T05:42:46.214Z,101376.13
2019-06-01T05:45:22.199Z,101377.56
2019-06-01T05:47:55.023Z,101383.38
2019-06-01T05:50:28.534Z,101382.59
2019-06-01T05:53:02.071Z,101389.36
2019-06-01T05:55:35.526Z,101387.53
2019-06-01T05:58:08.945Z,101390.95
2019-06-01T06:00:43.867Z,101388.64
2019-06-01T06:03:20.769Z,101393.81
2019-06-01T06:05:52.776Z,101382.78
2019-06-01T06:08:26.194Z,101382.92
2019-06-01T06:10:59.633Z,101382.13
2019-06-01T06:13:33.069Z,101386.47
2019-06-01T06:16:06.562Z,101386.88
2019-06-01T06:18:39.993Z,101385.05
2019-06-01T06:21:13.989Z,101395.34
2019-06-01T06:23:47.516Z,101393.29
2019-06-01T06:26:22.708Z,101390.94
2019-06-01T06:28:56.244Z,101393.48
2019-06-01T06:31:31.127Z,101395.53
2019-06-01T06:34:04.693Z,101388.16
2019-06-01T06:36:38.119Z,101386.83
2019-06-01T06:39:11.529Z,101389.19
2019-06-01T06:41:44.998Z,101390.02
2019-06-01T06:44:18.589Z,101390.02
2019-06-01T06:46:51.988Z,101401.25
2019-06-01T06:49:25.507Z,101391.97
2019-06-01T06:51:58.905Z,101386.36
2019-06-01T06:54:32.324Z,101391.08
2019-06-01T06:57:05.725Z,101390.43
2019-06-01T06:59:39.136Z,101390.47
2019-06-01T07:02:12.551Z,101396.48
2019-06-01T07:04:46.038Z,101382.69
2019-06-01T07:07:19.603Z,101385.61
2019-06-01T07:09:52.968Z,101378.73
2019-06-01T07:12:27.428Z,101382.87
2019-06-01T07:15:01.067Z,101378.38
2019-06-01T07:17:34.584Z,101382.67
2019-06-01T07:20:08.068Z,101380.81
2019-06-01T07:22:41.489Z,101377.80
2019-06-01T07:25:14.972Z,101378.98
2019-06-01T07:27:48.440Z,101378.49
2019-06-01T07:30:22.213Z,101376.96
2019-06-01T07:32:55.620Z,101380.59
2019-06-01T07:35:29.059Z,101376.33
2019-06-01T07:38:03.338Z,101373.94
2019-06-01T07:40:36.751Z,101371.00
2019-06-01T07:43:10.251Z,101373.58
2019-06-01T07:45:43.716Z,101372.31
2019-06-01T07:48:17.115Z,101367.33
2019-06-01T07:50:50.544Z,101373.16
2019-06-01T07:53:24.450Z,101369.61
2019-06-01T07:55:59.083Z,101369.63
2019-06-01T07:58:32.947Z,101376.17
2019-06-01T08:01:06.501Z,101373.49
2019-06-01T08:03:39.938Z,101368.08
2019-06-01T08:06:13.331Z,101363.56
2019-06-01T08:08:46.764Z,101372.40
2019-06-01T08:11:21.268Z,101366.42
2019-06-01T08:13:54.771Z,101358.97
2019-06-01T08:16:28.179Z,101360.83
2019-06-01T08:19:01.577Z,101363.51
2019-06-01T08:21:34.983Z,101356.31
2019-06-01T08:24:08.442Z,101359.54
2019-06-01T08:26:41.827Z,101339.60
2019-06-01T08:29:15.221Z,101339.97
2019-06-01T08:31:48.623Z,101336.82
2019-06-01T08:34:22.719Z,101343.42
2019-06-01T08:36:56.178Z,101342.58
2019-06-01T08:39:29.597Z,101332.73
2019-06-01T08:42:03.000Z,101341.53
2019-06-01T08:44:36.421Z,101346.80
2019-06-01T08:47:09.892Z,101339.53
2019-06-01T08:49:43.328Z,101332.99
2019-06-01T08:52:16.747Z,101327.84
2019-06-01T08:54:50.167Z,101335.59
2019-06-01T08:57:24.202Z,101329.55
2019-06-01T08:59:57.756Z,101332.44
2019-06-01T09:02:32.557Z,101332.37
2019-06-01T09:05:21.318Z,101332.59
2019-06-01T09:07:43.246Z,101328.13
2019-06-01T09:10:16.863Z,101326.39
2019-06-01T09:12:50.235Z,101320.17
2019-06-01T09:15:23.654Z,101319.30
2019-06-01T09:17:57.041Z,101315.50
2019-06-01T09:20:35.320Z,101315.37
2019-06-01T09:23:05.625Z,101307.20
2019-06-01T09:25:39.044Z,101307.15
2019-06-01T09:28:12.437Z,101314.01
2019-06-01T09:30:45.878Z,101314.97
2019-06-01T09:33:19.283Z,101315.51
2019-06-01T09:35:56.174Z,101308.95
2019-06-01T09:38:27.822Z,101313.41
2019-06-01T09:41:01.236Z,101309.30
2019-06-01T09:43:34.987Z,101306.91
2019-06-01T09:46:08.724Z,101305.00
2019-06-01T09:48:42.223Z,101297.33
2019-06-01T09:51:15.627Z,101301.33
2019-06-01T09:53:49.043Z,101302.58
2019-06-01T09:56:22.530Z,101307.01
2019-06-01T09:58:55.933Z,101299.49
2019-06-01T10:01:30.057Z,101291.03
2019-06-01T10:04:03.678Z,101296.79
2019-06-01T10:06:37.082Z,101289.10
2019-06-01T10:09:10.577Z,101294.80
2019-06-01T10:11:44.076Z,101288.18
2019-06-01T10:14:17.511Z,101287.78
2019-06-01T10:16:50.959Z,101284.14
2019-06-01T10:19:24.379Z,101281.52
2019-06-01T10:21:57.814Z,101278.93
2019-06-01T10:24:31.244Z,101281.66
2019-06-01T10:27:04.731Z,101279.55
2019-06-01T10:29:39.890Z,101275.53
2019-06-01T10:32:13.345Z,101273.38
2019-06-01T10:34:48.420Z,101277.97
2019-06-01T10:37:29.644Z,101274.02
2019-06-01T10:39:58.644Z,101276.53
2019-06-01T10:42:32.773Z,101278.23
2019-06-01T10:45:08.470Z,101273.42
2019-06-01T10:47:42.264Z,101273.53
2019-06-01T10:50:17.426Z,101273.10
2019-06-01T10:52:50.895Z,101260.23
2019-06-01T10:55:24.315Z,101273.44
2019-06-01T10:57:57.746Z,101268.40
2019-06-01T11:00:38.738Z,101266.92
2019-06-01T11:03:06.324Z,101265.31
2019-06-01T11:05:40.864Z,101264.31
2019-06-01T11:08:14.383Z,101256.22
2019-06-01T11:10:47.781Z,101250.14
2019-06-01T11:13:21.206Z,101252.21
2019-06-01T11:15:54.619Z,101244.55
2019-06-01T11:18:28.049Z,101241.92
2019-06-01T11:21:01.461Z,101243.12
2019-06-01T11:23:35.558Z,101243.12
2019-06-01T11:26:09.008Z,101240.77
2019-06-01T11:28:42.519Z,101236.98
2019-06-01T11:31:15.931Z,101237.13
2019-06-01T11:33:49.389Z,101237.73
2019-06-01T11:36:22.808Z,101231.73
2019-06-01T11:38:56.234Z,101229.02
2019-06-01T11:41:29.661Z,101227.11
2019-06-01T11:44:03.148Z,101225.36
2019-06-01T11:46:36.760Z,101220.69
2019-06-01T11:49:10.196Z,101219.11
2019-06-01T11:51:43.590Z,101215.18
2019-06-01T11:54:16.999Z,101203.50
2019-06-01T11:56:50.394Z,101204.97
2019-06-01T11:59:23.828Z,101200.63
2019-06-01T12:01:57.263Z,101195.75
2019-06-01T12:04:30.694Z,101197.78
2019-06-01T12:07:16.993Z,101188.94
2019-06-01T12:09:39.926Z,101184.41
2019-06-01T12:12:13.391Z,101183.84
2019-06-01T12:14:46.935Z,101177.70
2019-06-01T12:17:20.326Z,101174.85
2019-06-01T12:19:53.763Z,101167.12
2019-06-01T12:22:27.178Z,101165.69
2019-06-01T12:25:00.612Z,101169.44
2019-06-01T12:27:34.094Z,101161.20
2019-06-01T12:30:09.262Z,101160.38
2019-06-01T12:32:43.932Z,101160.23
2019-06-01T12:35:17.817Z,101144.03
2019-06-01T12:38:05.339Z,101139.97
2019-06-01T12:40:26.365Z,101138.08
2019-06-01T12:42:59.779Z,101140.50
2019-06-01T12:45:33.234Z,101142.58
2019-06-01T12:48:06.725Z,101137.30
2019-06-01T12:50:40.154Z,101134.83
2019-06-01T12:53:13.566Z,101129.31
2019-06-01T12:55:47.023Z,101130.15
2019-06-01T12:58:20.430Z,101126.92
2019-06-01T13:00:53.892Z,101126.87
2019-06-01T13:03:27.307Z,101124.63
2019-06-01T13:06:00.753Z,101123.22
2019-06-01T13:08:34.151Z,101119.69
2019-06-01T13:11:07.558Z,101115.92
2019-06-01T13:13:41.269Z,101114.55
2019-06-01T13:16:14.628Z,101111.69
2019-06-01T13:18:49.444Z,101111.45
2019-06-01T13:21:23.134Z,101112.30
2019-06-01T13:23:56.565Z,101106.22
2019-06-01T13:26:29.970Z,101098.98
2019-06-01T13:29:03.371Z,101100.56
2019-06-01T13:31:36.875Z,101097.31
2019-06-01T13:34:10.309Z,101089.66
2019-06-01T13:36:44.583Z,101095.45
2019-06-01T13:39:18.076Z,101086.25
2019-06-01T13:41:51.607Z,101078.92
2019-06-01T13:44:25.039Z,101075.09
2019-06-01T13:46:58.485Z,101067.56
2019-06-01T13:49:31.887Z,101059.64
2019-06-01T13:52:05.364Z,101062.98
2019-06-01T13:54:40.188Z,101053.27
2019-06-01T13:57:14.745Z,101055.44
2019-06-01T13:59:48.771Z,101050.14
2019-06-01T14:02:22.291Z,101042.16
2019-06-01T14:04:56.194Z,101044.19
2019-06-01T14:07:29.718Z,101033.23
2019-06-01T14:10:05.354Z,101032.89
2019-06-01T14:12:38.769Z,101031.27
2019-06-01T14:15:12.472Z,101033.77
2019-06-01T14:17:46.023Z,101033.78
2019-06-01T14:20:19.396Z,101032.80
2019-06-01T14:22:54.073Z,101026.24
2019-06-01T14:25:27.565Z,101031.80
2019-06-01T14:28:00.953Z,101027.83
2019-06-01T14:30:34.410Z,101030.36
2019-06-01T14:33:07.883Z,101019.02
2019-06-01T14:35:41.322Z,101016.13
2019-06-01T14:38:14.721Z,101021.89
2019-06-01T14:40:48.938Z,101016.89
2019-06-01T14:43:22.430Z,101016.97
2019-06-01T14:45:56.015Z,101012.02
2019-06-01T14:48:29.419Z,101007.00
2019-06-01T14:51:02.855Z,101008.43
2019-06-01T14:53:36.251Z,101006.33
2019-06-01T14:56:09.709Z,101007.27
2019-06-01T14:58:43.095Z,101005.36
2019-06-01T15:01:31.393Z,101000.77
2019-06-01T15:03:52.280Z,100989.44
2019-06-01T15:06:25.714Z,100996.15
2019-06-01T15:09:17.093Z,100996.42
2019-06-01T15:11:34.358Z,100992.20
2019-06-01T15:14:07.768Z,100995.64
2019-06-01T15:16:41.201Z,100991.33
2019-06-01T15:19:15.013Z,100995.56
2019-06-01T15:21:49.773Z,100990.84
2019-06-01T15:24:23.548Z,100978.48
2019-06-01T15:26:57.011Z,100986.02
2019-06-01T15:29:30.442Z,100982.48
2019-06-01T15:32:03.971Z,100985.28
2019-06-01T15:34:37.439Z,100983.84
2019-06-01T15:37:10.819Z,100976.95
2019-06-01T15:39:44.245Z,100972.79
2019-06-01T15:42:17.709Z,100973.25
2019-06-01T15:44:51.109Z,100968.08
2019-06-01T15:47:24.530Z,100958.03
2019-06-01T15:49:58.161Z,100964.25
2019-06-01T15:52:31.587Z,100968.47
2019-06-01T15:55:07.514Z,100962.85
2019-06-01T15:57:40.944Z,100957.53
2019-06-01T16:00:14.832Z,100953.83
2019-06-01T16:02:48.334Z,100958.13
2019-06-01T16:05:21.781Z,100953.51
2019-06-01T16:07:55.220Z,100951.70
2019-06-01T16:10:28.625Z,100952.04
2019-06-01T16:13:02.134Z,100940.00
2019-06-01T16:15:35.586Z,100941.97
2019-06-01T16:18:09.014Z,100949.28
2019-06-01T16:20:42.440Z,100947.12
2019-06-01T16:23:15.896Z,100942.91
2019-06-01T16:26:02.982Z,100940.39
2019-06-01T16:28:24.546Z,100945.52
2019-06-01T16:30:58.509Z,100934.03
2019-06-01T16:33:31.974Z,100941.57
2019-06-01T16:36:05.668Z,100938.81
2019-06-01T16:38:39.055Z,100942.04
2019-06-01T16:41:12.476Z,100945.45
2019-06-01T16:43:45.902Z,100938.73
2019-06-01T16:46:19.393Z,100946.16
2019-06-01T16:48:52.958Z,100931.13
2019-06-01T16:51:26.361Z,100929.73
2019-06-01T16:53:59.778Z,100928.78
2019-06-01T16:56:33.186Z,100929.62
2019-06-01T16:59:06.620Z,100924.23
2019-06-01T17:01:40.136Z,100928.27
2019-06-01T17:04:13.623Z,100919.52
2019-06-01T17:06:47.571Z,100916.91
2019-06-01T17:09:21.096Z,100911.70
2019-06-01T17:11:54.574Z,100919.63
2019-06-01T17:14:28.002Z,100921.56
2019-06-01T17:17:01.479Z,100924.20
2019-06-01T17:19:34.887Z,100920.45
2019-06-01T17:22:08.346Z,100918.47
2019-06-01T17:24:41.911Z,100919.77
2019-06-01T17:27:15.391Z,100920.71
2019-06-01T17:29:48.825Z,100914.34
2019-06-01T17:32:24.567Z,100920.71
2019-06-01T17:34:58.602Z,100917.84
2019-06-01T17:37:32.087Z,100917.17
2019-06-01T17:40:08.452Z,100923.02
2019-06-01T17:42:41.873Z,100920.16
2019-06-01T17:45:15.594Z,100918.11
2019-06-01T17:47:49.121Z,100923.80
2019-06-01T17:50:23.830Z,100916.23
2019-06-01T17:52:57.320Z,100918.19
2019-06-01T17:55:33.119Z,100916.47
2019-06-01T17:58:07.819Z,100909.58
2019-06-01T18:00:42.410Z,100912.61
2019-06-01T18:03:15.845Z,100910.92
2019-06-01T18:05:49.394Z,100916.25
2019-06-01T18:08:22.886Z,100922.00
2019-06-01T18:10:56.316Z,100918.45
2019-06-01T18:13:29.702Z,100917.92
2019-06-01T18:16:04.541Z,100921.72
2019-06-01T18:18:38.122Z,100918.89
2019-06-01T18:21:12.878Z,100921.95
2019-06-01T18:23:49.151Z,100913.36
2019-06-01T18:26:21.643Z,100915.28
2019-06-01T18:28:55.063Z,100923.02
2019-06-01T18:31:28.472Z,100922.88
2019-06-01T18:34:03.205Z,100927.66
2019-06-01T18:36:36.722Z,100920.28
2019-06-01T18:39:11.643Z,100921.33
2019-06-01T18:41:45.282Z,100921.16
2019-06-01T18:44:18.824Z,100920.50
2019-06-01T18:46:52.518Z,100923.25
2019-06-01T18:49:25.917Z,100922.11
2019-06-01T18:51:59.605Z,100919.25
2019-06-01T18:54:33.017Z,100919.25
2019-06-01T18:57:13.418Z,100911.78
2019-06-01T18:59:41.788Z,100915.70
2019-06-01T19:02:15.278Z,100914.08
2019-06-01T19:04:48.689Z,100912.79
2019-06-01T19:07:22.105Z,100914.44
2019-06-01T19:09:55.500Z,100915.84
2019-06-01T19:12:29.043Z,100914.32
2019-06-01T19:15:03.019Z,100911.72
2019-06-01T19:17:36.784Z,100918.23
2019-06-01T19:20:11.129Z,100919.63
2019-06-01T19:22:44.653Z,100918.08
2019-06-01T19:25:18.129Z,100922.91
2019-06-01T19:27:51.576Z,100920.17
2019-06-01T19:30:39.571Z,100924.51
2019-06-01T19:33:17.288Z,100930.17
2019-06-01T19:35:49.858Z,100935.25
2019-06-01T19:38:23.291Z,100939.82
2019-06-01T19:40:56.716Z,100938.56
2019-06-01T19:43:30.224Z,100943.98
2019-06-01T19:46:03.622Z,100945.16
2019-06-01T19:48:37.061Z,100950.57
2019-06-01T19:51:10.747Z,100944.52
2019-06-01T19:53:44.241Z,100950.86
2019-06-01T19:56:17.621Z,100952.20
2019-06-01T19:58:51.061Z,100954.14
2019-06-01T20:01:24.460Z,100960.45
2019-06-01T20:03:57.912Z,100960.13
2019-06-01T20:06:31.337Z,100960.80
2019-06-01T20:09:06.931Z,100965.48
2019-06-01T20:11:40.367Z,100958.87
2019-06-01T20:14:14.246Z,100967.88
2019-06-01T20:16:47.765Z,100966.62
2019-06-01T20:19:21.874Z,100965.63
2019-06-01T20:21:55.282Z,100967.52
2019-06-01T20:24:28.730Z,100970.16
2019-06-01T20:27:02.137Z,100967.87
2019-06-01T20:29:35.646Z,100970.78
2019-06-01T20:32:09.241Z,100964.56
2019-06-01T20:34:42.701Z,100971.01
2019-06-01T20:37:16.056Z,100968.86
2019-06-01T20:39:49.588Z,100967.52
2019-06-01T20:42:32.056Z,100968.31
2019-06-01T20:44:58.160Z,100965.70
2019-06-01T20:47:31.681Z,100961.78
2019-06-01T20:50:07.977Z,100964.36
2019-06-01T20:52:41.434Z,100963.28
2019-06-01T20:55:16.949Z,100960.59
2019-06-01T20:57:50.401Z,100960.13
2019-06-01T21:00:23.968Z,100964.95
2019-06-01T21:02:57.402Z,100964.04
2019-06-01T21:05:30.792Z,100958.05
2019-06-01T21:08:05.337Z,100959.22
2019-06-01T21:10:38.804Z,100958.34
2019-06-01T21:13:12.179Z,100956.17
2019-06-01T21:15:45.610Z,100959.28
2019-06-01T21:18:19.641Z,100955.64
2019-06-01T21:20:54.289Z,100959.28
2019-06-01T21:23:27.702Z,100958.65
2019-06-01T21:26:01.232Z,100961.88
2019-06-01T21:28:34.712Z,100958.95
2019-06-01T21:31:08.141Z,100963.98
2019-06-01T21:33:41.534Z,100963.05
2019-06-01T21:36:15.297Z,100965.44
2019-06-01T21:38:48.703Z,100967.47
2019-06-01T21:41:22.136Z,100964.27
2019-06-01T21:43:55.541Z,100959.56
2019-06-01T21:46:28.966Z,100957.36
2019-06-01T21:49:02.377Z,100961.77
2019-06-01T21:51:35.800Z,100958.00
2019-06-01T21:54:09.194Z,100959.16
2019-06-01T21:56:42.629Z,100954.89
2019-06-01T21:59:16.471Z,100952.22
2019-06-01T22:01:50.140Z,100951.44
2019-06-01T22:04:25.335Z,100956.31
2019-06-01T22:06:58.777Z,100949.55
2019-06-01T22:09:32.190Z,100947.44
2019-06-01T22:12:05.693Z,100949.08
2019-06-01T22:14:39.142Z,100948.84
2019-06-01T22:17:12.578Z,100944.70
2019-06-01T22:19:45.972Z,100943.51
2019-06-01T22:22:19.654Z,100945.83
2019-06-01T22:24:52.983Z,100939.72
2019-06-01T22:27:26.486Z,100940.57
2019-06-01T22:29:59.913Z,100940.47
2019-06-01T22:32:33.339Z,100941.80
2019-06-01T22:35:07.764Z,100940.60
2019-06-01T22:37:41.224Z,100936.95
2019-06-01T22:40:15.345Z,100936.11
2019-06-01T22:42:48.797Z,100928.80
2019-06-01T22:45:22.283Z,100924.90
2019-06-01T22:47:55.685Z,100927.43
2019-06-01T22:50:29.172Z,100923.11
2019-06-01T22:53:02.684Z,100926.06
2019-06-01T22:55:36.109Z,100929.76
2019-06-01T22:58:09.520Z,100928.67
2019-06-01T23:00:42.921Z,100923.88
2019-06-01T23:03:16.399Z,100923.09
2019-06-01T23:05:49.871Z,100921.81
2019-06-01T23:08:24.069Z,100918.41
2019-06-01T23:10:58.500Z,100921.31
2019-06-01T23:13:32.408Z,100913.87
2019-06-01T23:16:05.998Z,100914.48
2019-06-01T23:18:39.427Z,100914.10
2019-06-01T23:21:12.857Z,100916.38
2019-06-01T23:23:46.267Z,100915.70
2019-06-01T23:26:19.684Z,100917.94
2019-06-01T23:28:53.120Z,100925.56
2019-06-01T23:31:26.519Z,100920.61
2019-06-01T23:33:59.937Z,100915.76
2019-06-01T23:36:33.333Z,100910.97
2019-06-01T23:39:08.116Z,100917.36
2019-06-01T23:41:41.520Z,100919.56
2019-06-01T23:44:14.969Z,100913.52
2019-06-01T23:46:48.369Z,100910.54
2019-06-01T23:49:23.023Z,100904.39
2019-06-01T23:51:56.528Z,100904.39
2019-06-01T23:54:29.983Z,100902.15
2019-06-01T23:57:03.421Z,100902.15
2019-06-01T23:59:36.859Z,100900.44
